< < Back
Terminal Aerodrome Forecast


Current Version              Previous Versions:   1  2  3  4  5  6  7  8  9  

Terminal Aerodrome Forecast

014
FTAK31 PAJN 301100
TAFAHN
TAF
PAHN 301128Z 3012/0112 09010G20KT P6SM -SHRA OVC008
     FM301800 12008KT P6SM -SHRA BKN015 OVC025
     FM302100 VRB05KT P6SM VCSH SCT015 OVC030
     FM302300 30005KT P6SM SCT025 BKN050 OVC070
     FM010700 30007KT P6SM SCT050 BKN070
      AMD LTD TO CLD VIS AND WIND=

Latest METAR

618
SAUS70 KWBC 301300 RRA
MTRAHN
METAR KAHN 301251Z 00000KT 6SM CLR 18/17 A2998 RMK AO2 SLP149
T01780172


USA.gov is the U.S. government's official web portal to all federal, state and local government web resources and services.